createdAt,value
2022-12-26T00:00:41.007Z,1005.76
2022-12-26T00:01:40.922Z,1005.68
2022-12-26T00:02:41.107Z,1005.66
2022-12-26T00:03:41.098Z,1005.64
2022-12-26T00:04:49.109Z,1005.64
2022-12-26T00:05:41.879Z,1005.55
2022-12-26T00:06:40.880Z,1005.53
2022-12-26T00:07:40.858Z,1005.54
2022-12-26T00:08:40.897Z,1005.50
2022-12-26T00:09:40.832Z,1005.47
2022-12-26T00:10:40.965Z,1005.44
2022-12-26T00:11:40.800Z,1005.38
2022-12-26T00:12:40.787Z,1005.40
2022-12-26T00:13:41.791Z,1005.38
2022-12-26T00:14:40.787Z,1005.33
2022-12-26T00:15:40.789Z,1005.29
2022-12-26T00:16:40.812Z,1005.33
2022-12-26T00:17:40.753Z,1005.29
2022-12-26T00:18:40.751Z,1005.28
2022-12-26T00:19:41.446Z,1005.28
2022-12-26T00:20:40.737Z,1005.29
2022-12-26T00:21:41.847Z,1005.27
2022-12-26T00:22:40.684Z,1005.19
2022-12-26T00:23:40.678Z,1005.19
2022-12-26T00:24:40.673Z,1005.17
2022-12-26T00:25:40.680Z,1005.22
2022-12-26T00:26:40.648Z,1005.22
2022-12-26T00:27:40.643Z,1005.26
2022-12-26T00:28:40.625Z,1005.24
2022-12-26T00:29:40.625Z,1005.23
2022-12-26T00:30:40.603Z,1005.23
2022-12-26T00:31:40.691Z,1005.24
2022-12-26T00:32:40.587Z,1005.26
2022-12-26T00:33:40.572Z,1005.25
2022-12-26T00:34:40.572Z,1005.21
2022-12-26T00:35:40.551Z,1005.13
2022-12-26T00:36:40.567Z,1005.11
2022-12-26T00:37:40.534Z,1005.09
2022-12-26T00:38:40.521Z,1005.04
2022-12-26T00:39:40.519Z,1005.09
2022-12-26T00:40:40.515Z,1005.09
2022-12-26T00:41:40.488Z,1005.00
2022-12-26T00:42:40.477Z,1005.02
2022-12-26T00:43:40.486Z,1005.03
2022-12-26T00:44:40.451Z,1005.01
2022-12-26T00:45:40.450Z,1005.11
2022-12-26T00:46:40.493Z,1005.11
2022-12-26T00:47:40.446Z,1005.06
2022-12-26T00:48:40.411Z,1005.08
2022-12-26T00:50:12.354Z,1005.08
2022-12-26T00:50:41.425Z,1005.05
2022-12-26T00:51:40.383Z,1005.02
2022-12-26T00:52:40.636Z,1005.00
2022-12-26T00:53:40.366Z,1004.91
2022-12-26T00:54:40.349Z,1004.91
2022-12-26T00:55:40.352Z,1004.92
2022-12-26T00:56:40.335Z,1004.97
2022-12-26T00:57:40.314Z,1004.90
2022-12-26T00:58:40.326Z,1004.88
2022-12-26T00:59:40.295Z,1004.85
2022-12-26T01:00:40.338Z,1004.85
2022-12-26T01:01:40.432Z,1004.84
2022-12-26T01:02:40.404Z,1004.85
2022-12-26T01:03:40.299Z,1004.83
2022-12-26T01:04:40.245Z,1004.90
2022-12-26T01:05:40.238Z,1004.82
2022-12-26T01:06:40.225Z,1004.84
2022-12-26T01:08:19.846Z,1004.88
2022-12-26T01:08:41.229Z,1004.82
2022-12-26T01:09:40.197Z,1004.83
2022-12-26T01:10:40.191Z,1004.74
2022-12-26T01:11:40.444Z,1004.71
2022-12-26T01:12:40.180Z,1004.71
2022-12-26T01:13:40.160Z,1004.65
2022-12-26T01:14:40.130Z,1004.71
2022-12-26T01:15:40.125Z,1004.72
2022-12-26T01:16:40.228Z,1004.74
2022-12-26T01:17:40.104Z,1004.68
2022-12-26T01:18:40.142Z,1004.84
2022-12-26T01:19:40.093Z,1004.90
2022-12-26T01:20:40.064Z,1004.92
2022-12-26T01:21:40.065Z,1004.94
2022-12-26T01:22:40.097Z,1004.97
2022-12-26T01:23:40.061Z,1005.03
2022-12-26T01:24:40.045Z,1005.06
2022-12-26T01:26:18.299Z,1005.07
2022-12-26T01:26:41.007Z,1005.11
2022-12-26T01:27:39.996Z,1005.06
2022-12-26T01:28:39.982Z,1005.05
2022-12-26T01:29:39.986Z,1005.05
2022-12-26T01:30:39.963Z,1005.04
2022-12-26T01:31:40.042Z,1004.96
2022-12-26T01:32:39.943Z,1004.94
2022-12-26T01:33:39.964Z,1004.94
2022-12-26T01:34:39.924Z,1004.87
2022-12-26T01:35:39.927Z,1004.81
2022-12-26T01:36:39.908Z,1004.88
2022-12-26T01:37:39.884Z,1004.94
2022-12-26T01:38:39.915Z,1004.92
2022-12-26T01:39:39.868Z,1004.84
2022-12-26T01:40:39.857Z,1004.86
2022-12-26T01:41:39.856Z,1004.88
2022-12-26T01:42:39.836Z,1004.83
2022-12-26T01:43:39.820Z,1004.89
2022-12-26T01:44:39.826Z,1004.92
2022-12-26T01:45:39.858Z,1004.89
2022-12-26T01:46:39.796Z,1004.95
2022-12-26T01:47:39.807Z,1004.83
2022-12-26T01:48:39.784Z,1004.78
2022-12-26T01:49:39.765Z,1004.83
2022-12-26T01:50:39.779Z,1004.82
2022-12-26T01:51:39.764Z,1004.75
2022-12-26T01:52:39.731Z,1004.76
2022-12-26T01:53:39.716Z,1004.81
2022-12-26T01:54:42.634Z,1004.88
2022-12-26T01:55:39.700Z,1004.90
2022-12-26T01:56:39.702Z,1004.87
2022-12-26T01:57:39.669Z,1004.83
2022-12-26T01:58:39.669Z,1004.78
2022-12-26T01:59:39.683Z,1004.85
2022-12-26T02:00:39.727Z,1004.78
2022-12-26T02:01:39.735Z,1004.80
2022-12-26T02:02:39.713Z,1004.86
2022-12-26T02:03:39.627Z,1004.75
2022-12-26T02:04:39.597Z,1004.84
2022-12-26T02:05:39.585Z,1004.84
2022-12-26T02:06:39.584Z,1004.89
2022-12-26T02:07:39.598Z,1004.89
2022-12-26T02:08:39.560Z,1004.86
2022-12-26T02:09:39.551Z,1004.83
2022-12-26T02:10:39.536Z,1004.93
2022-12-26T02:11:39.538Z,1004.91
2022-12-26T02:12:39.612Z,1004.89
2022-12-26T02:13:39.526Z,1004.88
2022-12-26T02:14:39.511Z,1004.86
2022-12-26T02:15:39.530Z,1004.84
2022-12-26T02:16:39.563Z,1004.73
2022-12-26T02:17:39.462Z,1004.70
2022-12-26T02:18:39.453Z,1004.60
2022-12-26T02:19:39.441Z,1004.63
2022-12-26T02:20:39.435Z,1004.62
2022-12-26T02:21:39.415Z,1004.70
2022-12-26T02:22:39.436Z,1004.78
2022-12-26T02:23:39.436Z,1004.74
2022-12-26T02:24:39.389Z,1004.74
2022-12-26T02:25:39.378Z,1004.75
2022-12-26T02:26:39.369Z,1004.75
2022-12-26T02:27:39.355Z,1004.72
2022-12-26T02:28:39.345Z,1004.74
2022-12-26T02:29:39.345Z,1004.74
2022-12-26T02:30:39.326Z,1004.71
2022-12-26T02:31:39.423Z,1004.65
2022-12-26T02:32:39.301Z,1004.61
2022-12-26T02:33:39.289Z,1004.60
2022-12-26T02:34:39.300Z,1004.59
2022-12-26T02:35:39.275Z,1004.58
2022-12-26T02:36:39.265Z,1004.66
2022-12-26T02:37:39.255Z,1004.62
2022-12-26T02:38:39.236Z,1004.65
2022-12-26T02:39:43.717Z,1004.68
2022-12-26T02:40:40.214Z,1004.64
2022-12-26T02:41:39.206Z,1004.61
2022-12-26T02:42:39.211Z,1004.52
2022-12-26T02:43:39.197Z,1004.52
2022-12-26T02:44:39.191Z,1004.62
2022-12-26T02:45:39.269Z,1004.61
2022-12-26T02:46:39.150Z,1004.68
2022-12-26T02:47:39.135Z,1004.67
2022-12-26T02:48:39.152Z,1004.64
2022-12-26T02:49:39.125Z,1004.61
2022-12-26T02:50:39.106Z,1004.63
2022-12-26T02:51:39.101Z,1004.62
2022-12-26T02:52:39.080Z,1004.65
2022-12-26T02:53:39.105Z,1004.69
2022-12-26T02:54:39.084Z,1004.67
2022-12-26T02:55:39.066Z,1004.67
2022-12-26T02:56:39.055Z,1004.66
2022-12-26T02:57:39.037Z,1004.74
2022-12-26T02:58:39.033Z,1004.76
2022-12-26T02:59:55.928Z,1004.84
2022-12-26T03:00:40.004Z,1004.76
2022-12-26T03:01:39.202Z,1004.79
2022-12-26T03:02:39.176Z,1004.81
2022-12-26T03:03:38.975Z,1004.83
2022-12-26T03:04:38.967Z,1004.76
2022-12-26T03:05:38.939Z,1004.76
2022-12-26T03:06:38.935Z,1004.76
2022-12-26T03:07:38.933Z,1004.81
2022-12-26T03:08:38.921Z,1004.83
2022-12-26T03:09:38.902Z,1004.77
2022-12-26T03:10:38.892Z,1004.82
2022-12-26T03:11:38.916Z,1004.84
2022-12-26T03:12:38.888Z,1004.81
2022-12-26T03:13:38.880Z,1004.75
2022-12-26T03:14:38.853Z,1004.83
2022-12-26T03:15:38.839Z,1004.75
2022-12-26T03:16:38.886Z,1004.70
2022-12-26T03:17:38.820Z,1004.70
2022-12-26T03:18:59.314Z,1004.74
2022-12-26T03:19:39.799Z,1004.73
2022-12-26T03:20:38.799Z,1004.80
2022-12-26T03:21:38.777Z,1004.85
2022-12-26T03:22:38.769Z,1004.80
2022-12-26T03:23:38.757Z,1004.88
2022-12-26T03:24:38.751Z,1004.87
2022-12-26T03:25:38.727Z,1004.85
2022-12-26T03:26:38.718Z,1004.83
2022-12-26T03:27:38.741Z,1004.85
2022-12-26T03:28:38.700Z,1004.83
2022-12-26T03:29:38.706Z,1004.90
2022-12-26T03:30:38.734Z,1004.87
2022-12-26T03:31:38.668Z,1004.84
2022-12-26T03:32:38.665Z,1004.89
2022-12-26T03:33:38.647Z,1004.85
2022-12-26T03:34:38.653Z,1004.81
2022-12-26T03:35:38.641Z,1004.80
2022-12-26T03:36:38.623Z,1004.83
2022-12-26T03:37:48.392Z,1004.82
2022-12-26T03:38:39.608Z,1004.87
2022-12-26T03:39:38.584Z,1004.82
2022-12-26T03:40:38.594Z,1004.82
2022-12-26T03:41:38.566Z,1004.77
2022-12-26T03:42:38.556Z,1004.75
2022-12-26T03:43:38.559Z,1004.75
2022-12-26T03:44:38.529Z,1004.77
2022-12-26T03:45:38.522Z,1004.79
2022-12-26T03:46:38.593Z,1004.81
2022-12-26T03:47:38.499Z,1004.80
2022-12-26T03:48:38.506Z,1004.85
2022-12-26T03:49:38.467Z,1004.84
2022-12-26T03:50:38.463Z,1004.89
2022-12-26T03:51:38.466Z,1004.95
2022-12-26T03:52:38.440Z,1004.99
2022-12-26T03:53:38.428Z,1005.06
2022-12-26T03:54:38.432Z,1004.99
2022-12-26T03:55:38.403Z,1004.92
2022-12-26T03:56:38.405Z,1004.80
2022-12-26T03:57:38.385Z,1004.78
2022-12-26T03:58:38.376Z,1004.72
2022-12-26T03:59:38.475Z,1004.85
2022-12-26T04:00:38.352Z,1004.93
2022-12-26T04:01:38.521Z,1004.88
2022-12-26T04:02:38.525Z,1004.99
2022-12-26T04:03:38.327Z,1005.11
2022-12-26T04:04:38.311Z,1005.16
2022-12-26T04:05:38.310Z,1005.24
2022-12-26T04:06:38.312Z,1005.17
2022-12-26T04:07:38.293Z,1005.21
2022-12-26T04:08:39.278Z,1005.16
2022-12-26T04:09:38.257Z,1005.09
2022-12-26T04:10:38.251Z,1005.07
2022-12-26T04:11:38.239Z,1005.09
2022-12-26T04:12:38.231Z,1005.04
2022-12-26T04:13:38.218Z,1005.03
2022-12-26T04:14:38.221Z,1005.00
2022-12-26T04:15:38.250Z,1004.98
2022-12-26T04:16:38.172Z,1004.91
2022-12-26T04:17:38.165Z,1004.97
2022-12-26T04:18:38.154Z,1004.96
2022-12-26T04:19:38.152Z,1004.95
2022-12-26T04:20:38.159Z,1004.98
2022-12-26T04:21:38.127Z,1005.03
2022-12-26T04:22:38.110Z,1005.04
2022-12-26T04:23:38.098Z,1004.99
2022-12-26T04:24:38.089Z,1004.99
2022-12-26T04:25:49.781Z,1005.05
2022-12-26T04:26:39.072Z,1005.11
2022-12-26T04:27:38.065Z,1005.13
2022-12-26T04:28:38.073Z,1005.04
2022-12-26T04:29:38.049Z,1004.97
2022-12-26T04:30:38.028Z,1005.03
2022-12-26T04:31:38.133Z,1005.06
2022-12-26T04:32:38.008Z,1005.10
2022-12-26T04:33:38.017Z,1005.11
2022-12-26T04:34:37.990Z,1005.04
2022-12-26T04:35:37.972Z,1005.16
2022-12-26T04:36:37.968Z,1005.07
2022-12-26T04:37:37.962Z,1005.08
2022-12-26T04:38:37.970Z,1005.13
2022-12-26T04:39:37.939Z,1005.16
2022-12-26T04:40:37.953Z,1005.20
2022-12-26T04:41:37.913Z,1005.12
2022-12-26T04:42:37.907Z,1005.18
2022-12-26T04:43:50.340Z,1005.11
2022-12-26T04:44:38.900Z,1005.21
2022-12-26T04:45:37.867Z,1005.18
2022-12-26T04:46:37.969Z,1005.20
2022-12-26T04:47:37.866Z,1005.12
2022-12-26T04:48:37.841Z,1005.02
2022-12-26T04:49:37.831Z,1005.10
2022-12-26T04:50:37.815Z,1005.14
2022-12-26T04:51:37.797Z,1005.16
2022-12-26T04:52:37.796Z,1005.15
2022-12-26T04:53:37.794Z,1005.14
2022-12-26T04:54:37.769Z,1005.14
2022-12-26T04:55:37.778Z,1005.09
2022-12-26T04:56:37.754Z,1005.20
2022-12-26T04:57:37.736Z,1005.15
2022-12-26T04:58:37.739Z,1005.15
2022-12-26T04:59:37.713Z,1005.20
2022-12-26T05:00:37.730Z,1005.22
2022-12-26T05:01:37.837Z,1005.23
2022-12-26T05:02:37.904Z,1005.25
2022-12-26T05:03:37.746Z,1005.28
2022-12-26T05:04:37.683Z,1005.28
2022-12-26T05:05:37.649Z,1005.24
2022-12-26T05:06:37.688Z,1005.22
2022-12-26T05:07:37.629Z,1005.30
2022-12-26T05:08:37.621Z,1005.30
2022-12-26T05:09:37.620Z,1005.30
2022-12-26T05:10:37.626Z,1005.26
2022-12-26T05:11:37.584Z,1005.29
2022-12-26T05:12:37.583Z,1005.33
2022-12-26T05:13:37.566Z,1005.34
2022-12-26T05:14:37.559Z,1005.31
2022-12-26T05:15:37.569Z,1005.43
2022-12-26T05:16:37.548Z,1005.42
2022-12-26T05:17:37.542Z,1005.36
2022-12-26T05:18:37.501Z,1005.47
2022-12-26T05:19:37.543Z,1005.49
2022-12-26T05:20:37.479Z,1005.50
2022-12-26T05:21:37.485Z,1005.39
2022-12-26T05:22:37.471Z,1005.45
2022-12-26T05:23:37.451Z,1005.46
2022-12-26T05:24:37.441Z,1005.43
2022-12-26T05:25:37.434Z,1005.44
2022-12-26T05:26:37.433Z,1005.44
2022-12-26T05:27:37.441Z,1005.45
2022-12-26T05:28:37.402Z,1005.51
2022-12-26T05:29:37.404Z,1005.50
2022-12-26T05:30:37.378Z,1005.47
2022-12-26T05:31:37.619Z,1005.46
2022-12-26T05:32:37.376Z,1005.48
2022-12-26T05:33:37.359Z,1005.47
2022-12-26T05:34:37.329Z,1005.49
2022-12-26T05:35:37.369Z,1005.51
2022-12-26T05:36:37.308Z,1005.57
2022-12-26T05:37:37.314Z,1005.57
2022-12-26T05:38:37.310Z,1005.52
2022-12-26T05:39:37.295Z,1005.56
2022-12-26T05:40:37.303Z,1005.56
2022-12-26T05:41:37.261Z,1005.53
2022-12-26T05:42:37.246Z,1005.57
2022-12-26T05:43:37.282Z,1005.57
2022-12-26T05:44:37.238Z,1005.52
2022-12-26T05:45:37.222Z,1005.55
2022-12-26T05:46:37.270Z,1005.60
2022-12-26T05:47:37.208Z,1005.56
2022-12-26T05:48:37.199Z,1005.62
2022-12-26T05:49:37.193Z,1005.53
2022-12-26T05:50:37.167Z,1005.51
2022-12-26T05:51:37.199Z,1005.67
2022-12-26T05:52:37.151Z,1005.64
2022-12-26T05:53:37.147Z,1005.66
2022-12-26T05:54:37.129Z,1005.64
2022-12-26T05:55:37.127Z,1005.57
2022-12-26T05:56:37.119Z,1005.52
2022-12-26T05:57:37.094Z,1005.56
2022-12-26T05:58:37.072Z,1005.50
2022-12-26T05:59:37.092Z,1005.48
2022-12-26T06:00:37.078Z,1005.52
2022-12-26T06:01:37.177Z,1005.55
2022-12-26T06:02:37.224Z,1005.66
2022-12-26T06:03:37.188Z,1005.59
2022-12-26T06:04:37.023Z,1005.58
2022-12-26T06:05:37.015Z,1005.63
2022-12-26T06:06:37.000Z,1005.61
2022-12-26T06:07:37.013Z,1005.57
2022-12-26T06:08:36.998Z,1005.58
2022-12-26T06:09:36.965Z,1005.60
2022-12-26T06:10:36.974Z,1005.55
2022-12-26T06:11:36.962Z,1005.54
2022-12-26T06:12:36.931Z,1005.55
2022-12-26T06:13:36.917Z,1005.53
2022-12-26T06:14:36.919Z,1005.51
2022-12-26T06:15:36.902Z,1005.47
2022-12-26T06:16:36.953Z,1005.50
2022-12-26T06:17:36.890Z,1005.47
2022-12-26T06:18:36.868Z,1005.53
2022-12-26T06:19:41.396Z,1005.49
2022-12-26T06:20:37.856Z,1005.47
2022-12-26T06:21:36.827Z,1005.48
2022-12-26T06:22:36.825Z,1005.55
2022-12-26T06:23:36.829Z,1005.56
2022-12-26T06:24:36.813Z,1005.47
2022-12-26T06:25:36.792Z,1005.47
2022-12-26T06:26:36.786Z,1005.52
2022-12-26T06:27:36.782Z,1005.57
2022-12-26T06:28:36.769Z,1005.59
2022-12-26T06:29:36.779Z,1005.65
2022-12-26T06:30:36.747Z,1005.67
2022-12-26T06:31:36.792Z,1005.76
2022-12-26T06:32:36.719Z,1005.83
2022-12-26T06:33:36.699Z,1005.83
2022-12-26T06:34:36.693Z,1005.99
2022-12-26T06:35:36.719Z,1006.02
2022-12-26T06:36:36.663Z,1006.08
2022-12-26T06:37:36.665Z,1006.10
2022-12-26T06:38:36.681Z,1006.14
2022-12-26T06:39:36.659Z,1006.12
2022-12-26T06:40:36.627Z,1006.16
2022-12-26T06:41:36.624Z,1006.13
2022-12-26T06:42:36.617Z,1006.14
2022-12-26T06:43:36.597Z,1006.12
2022-12-26T06:44:36.584Z,1006.15
2022-12-26T06:45:36.574Z,1006.14
2022-12-26T06:46:36.646Z,1006.13
2022-12-26T06:47:36.559Z,1006.07
2022-12-26T06:48:36.543Z,1006.10
2022-12-26T06:49:36.539Z,1006.07
2022-12-26T06:50:36.513Z,1006.09
2022-12-26T06:51:36.533Z,1006.10
2022-12-26T06:52:36.497Z,1006.11
2022-12-26T06:53:36.482Z,1006.14
2022-12-26T06:54:36.477Z,1006.18
2022-12-26T06:55:36.483Z,1006.13
2022-12-26T06:56:36.459Z,1006.17
2022-12-26T06:57:36.463Z,1006.17
2022-12-26T06:58:36.439Z,1006.16
2022-12-26T06:59:36.416Z,1006.18
2022-12-26T07:00:36.489Z,1006.23
2022-12-26T07:01:36.595Z,1006.25
2022-12-26T07:02:36.561Z,1006.19
2022-12-26T07:03:36.395Z,1006.27
2022-12-26T07:04:36.369Z,1006.29
2022-12-26T07:05:36.353Z,1006.23
2022-12-26T07:06:36.406Z,1006.26
2022-12-26T07:07:36.365Z,1006.24
2022-12-26T07:08:36.336Z,1006.25
2022-12-26T07:09:36.319Z,1006.25
2022-12-26T07:10:36.321Z,1006.26
2022-12-26T07:11:36.309Z,1006.32
2022-12-26T07:12:36.292Z,1006.23
2022-12-26T07:13:36.277Z,1006.23
2022-12-26T07:14:36.274Z,1006.22
2022-12-26T07:15:36.247Z,1006.28
2022-12-26T07:16:36.347Z,1006.26
2022-12-26T07:17:36.233Z,1006.31
2022-12-26T07:18:36.232Z,1006.27
2022-12-26T07:19:36.250Z,1006.30
2022-12-26T07:20:36.188Z,1006.35
2022-12-26T07:21:40.466Z,1006.30
2022-12-26T07:22:36.170Z,1006.30
2022-12-26T07:23:36.162Z,1006.34
2022-12-26T07:24:36.158Z,1006.22
2022-12-26T07:25:36.136Z,1006.22
2022-12-26T07:26:36.144Z,1006.21
2022-12-26T07:27:36.145Z,1006.28
2022-12-26T07:28:36.111Z,1006.25
2022-12-26T07:29:36.110Z,1006.21
2022-12-26T07:30:36.098Z,1006.26
2022-12-26T07:31:36.116Z,1006.26
2022-12-26T07:32:36.064Z,1006.25
2022-12-26T07:33:36.067Z,1006.20
2022-12-26T07:34:36.062Z,1006.23
2022-12-26T07:35:36.046Z,1006.26
2022-12-26T07:36:36.023Z,1006.30
2022-12-26T07:37:36.007Z,1006.31
2022-12-26T07:38:36.010Z,1006.25
2022-12-26T07:39:36.000Z,1006.26
2022-12-26T07:40:36.010Z,1006.27
2022-12-26T07:41:35.996Z,1006.26
2022-12-26T07:42:35.961Z,1006.32
2022-12-26T07:43:35.963Z,1006.35
2022-12-26T07:44:35.930Z,1006.36
2022-12-26T07:45:40.342Z,1006.39
2022-12-26T07:46:37.007Z,1006.41
2022-12-26T07:47:35.905Z,1006.54
2022-12-26T07:48:35.908Z,1006.51
2022-12-26T07:49:35.882Z,1006.53
2022-12-26T07:50:35.873Z,1006.55
2022-12-26T07:51:35.868Z,1006.58
2022-12-26T07:52:35.874Z,1006.55
2022-12-26T07:53:35.860Z,1006.56
2022-12-26T07:54:35.832Z,1006.58
2022-12-26T07:55:35.836Z,1006.56
2022-12-26T07:56:35.827Z,1006.59
2022-12-26T07:57:48.638Z,1006.52
2022-12-26T07:58:36.788Z,1006.56
2022-12-26T07:59:35.789Z,1006.52
2022-12-26T08:00:35.764Z,1006.56
2022-12-26T08:01:35.976Z,1006.47
2022-12-26T08:02:36.026Z,1006.52
2022-12-26T08:03:35.788Z,1006.49
2022-12-26T08:04:35.741Z,1006.46
2022-12-26T08:05:35.775Z,1006.42
2022-12-26T08:06:35.703Z,1006.45
2022-12-26T08:07:35.719Z,1006.43
2022-12-26T08:08:35.692Z,1006.32
2022-12-26T08:09:35.666Z,1006.44
2022-12-26T08:10:35.673Z,1006.34
2022-12-26T08:11:35.800Z,1006.37
2022-12-26T08:12:35.649Z,1006.38
2022-12-26T08:13:35.648Z,1006.36
2022-12-26T08:14:35.617Z,1006.34
2022-12-26T08:15:35.659Z,1006.40
2022-12-26T08:16:35.705Z,1006.43
2022-12-26T08:17:35.593Z,1006.35
2022-12-26T08:18:35.585Z,1006.39
2022-12-26T08:19:35.573Z,1006.43
2022-12-26T08:20:36.575Z,1006.40
2022-12-26T08:21:35.622Z,1006.46
2022-12-26T08:22:35.600Z,1006.49
2022-12-26T08:23:35.520Z,1006.46
2022-12-26T08:24:35.538Z,1006.53
2022-12-26T08:25:35.567Z,1006.43
2022-12-26T08:26:35.481Z,1006.48
2022-12-26T08:27:35.526Z,1006.52
2022-12-26T08:28:35.474Z,1006.52
2022-12-26T08:29:35.459Z,1006.51
2022-12-26T08:30:35.442Z,1006.57
2022-12-26T08:31:36.177Z,1006.53
2022-12-26T08:32:36.285Z,1006.48
2022-12-26T08:33:35.418Z,1006.49
2022-12-26T08:34:35.414Z,1006.48
2022-12-26T08:35:35.409Z,1006.55
2022-12-26T08:39:15.650Z,1006.57
2022-12-26T08:39:53.991Z,1006.58
2022-12-26T08:40:54.000Z,1006.55
2022-12-26T08:41:53.984Z,1006.56
2022-12-26T08:43:12.005Z,1006.64
2022-12-26T08:44:54.950Z,1006.61
2022-12-26T08:45:53.999Z,1006.63
2022-12-26T08:46:53.970Z,1006.55
2022-12-26T08:47:53.922Z,1006.47
2022-12-26T08:48:53.914Z,1006.50
2022-12-26T08:49:53.895Z,1006.52
2022-12-26T08:50:53.872Z,1006.40
2022-12-26T08:51:53.875Z,1006.46
2022-12-26T08:52:53.866Z,1006.46
2022-12-26T08:53:53.854Z,1006.49
2022-12-26T08:54:53.840Z,1006.55
2022-12-26T08:55:53.838Z,1006.49
2022-12-26T08:56:53.822Z,1006.56
2022-12-26T08:57:53.812Z,1006.55
2022-12-26T08:58:53.790Z,1006.64
2022-12-26T08:59:53.788Z,1006.67
2022-12-26T09:00:55.584Z,1006.72
2022-12-26T09:01:53.850Z,1006.81
2022-12-26T09:02:53.966Z,1006.80
2022-12-26T09:03:53.761Z,1006.83
2022-12-26T09:04:53.740Z,1006.83
2022-12-26T09:05:53.727Z,1006.93
2022-12-26T09:06:53.711Z,1006.88
2022-12-26T09:07:53.693Z,1006.91
2022-12-26T09:08:53.696Z,1006.92
2022-12-26T09:09:53.669Z,1006.90
2022-12-26T09:10:53.679Z,1006.92
2022-12-26T09:11:53.674Z,1006.85
2022-12-26T09:12:53.646Z,1006.95
2022-12-26T09:13:53.702Z,1006.89
2022-12-26T09:14:53.626Z,1006.87
2022-12-26T09:15:53.789Z,1006.93
2022-12-26T09:16:53.631Z,1007.03
2022-12-26T09:17:53.610Z,1007.02
2022-12-26T09:18:53.595Z,1007.06
2022-12-26T09:19:53.596Z,1007.02
2022-12-26T09:20:53.562Z,1007.07
2022-12-26T09:21:53.541Z,1007.05
2022-12-26T09:22:53.561Z,1007.09
2022-12-26T09:23:53.529Z,1007.07
2022-12-26T09:24:53.530Z,1007.07
2022-12-26T09:25:53.513Z,1007.09
2022-12-26T09:26:53.494Z,1007.04
2022-12-26T09:27:58.751Z,1007.12
2022-12-26T09:28:54.473Z,1007.07
2022-12-26T09:29:53.474Z,1007.11
2022-12-26T09:30:53.490Z,1007.07
2022-12-26T09:31:53.456Z,1007.12
2022-12-26T09:32:53.423Z,1007.02
2022-12-26T09:33:53.432Z,1007.00
2022-12-26T09:34:53.440Z,1007.01
2022-12-26T09:35:57.026Z,1006.97
2022-12-26T09:36:54.384Z,1006.91
2022-12-26T09:37:53.375Z,1006.96
2022-12-26T09:38:53.367Z,1006.96
2022-12-26T09:39:53.353Z,1007.03
2022-12-26T09:40:53.353Z,1006.96
2022-12-26T09:41:53.342Z,1007.03
2022-12-26T09:42:53.329Z,1006.98
2022-12-26T09:43:53.315Z,1006.99
2022-12-26T09:44:53.312Z,1006.98
2022-12-26T09:45:53.337Z,1006.99
2022-12-26T09:46:53.270Z,1006.99
2022-12-26T09:47:53.272Z,1006.95
2022-12-26T09:48:53.281Z,1007.00
2022-12-26T09:49:53.252Z,1007.02
2022-12-26T09:50:53.266Z,1007.11
2022-12-26T09:51:53.235Z,1007.05
2022-12-26T09:52:53.227Z,1007.05
2022-12-26T09:54:00.737Z,1007.02
2022-12-26T09:54:53.185Z,1007.04
2022-12-26T09:55:53.181Z,1007.00
2022-12-26T09:57:14.565Z,1006.99
2022-12-26T09:57:54.156Z,1006.95
2022-12-26T09:58:53.152Z,1006.99
2022-12-26T09:59:53.151Z,1006.98
2022-12-26T10:00:53.152Z,1007.02
2022-12-26T10:01:53.208Z,1007.06
2022-12-26T10:02:53.113Z,1007.13
2022-12-26T10:03:53.111Z,1007.15
2022-12-26T10:04:53.123Z,1007.20
2022-12-26T10:05:53.080Z,1007.24
2022-12-26T10:06:53.092Z,1007.21
2022-12-26T10:07:53.050Z,1007.28
2022-12-26T10:08:53.060Z,1007.32
2022-12-26T10:09:53.059Z,1007.34
2022-12-26T10:10:53.057Z,1007.27
2022-12-26T10:11:53.013Z,1007.28
2022-12-26T10:12:53.013Z,1007.34
2022-12-26T10:13:52.994Z,1007.31
2022-12-26T10:14:53.024Z,1007.40
2022-12-26T10:15:52.988Z,1007.42
2022-12-26T10:16:52.987Z,1007.39
2022-12-26T10:17:52.956Z,1007.41
2022-12-26T10:18:52.943Z,1007.37
2022-12-26T10:19:52.941Z,1007.32
2022-12-26T10:20:52.937Z,1007.33
2022-12-26T10:21:52.923Z,1007.27
2022-12-26T10:22:52.913Z,1007.23
2022-12-26T10:23:52.883Z,1007.27
2022-12-26T10:24:52.893Z,1007.27
2022-12-26T10:25:52.872Z,1007.26
2022-12-26T10:26:52.875Z,1007.28
2022-12-26T10:27:52.853Z,1007.33
2022-12-26T10:28:52.834Z,1007.34
2022-12-26T10:29:52.843Z,1007.31
2022-12-26T10:30:52.849Z,1007.20
2022-12-26T10:31:52.843Z,1007.25
2022-12-26T10:32:52.800Z,1007.20
2022-12-26T10:33:52.829Z,1007.17
2022-12-26T10:34:52.777Z,1007.13
2022-12-26T10:35:52.764Z,1007.16
2022-12-26T10:36:52.756Z,1007.18
2022-12-26T10:37:52.743Z,1007.15
2022-12-26T10:38:52.745Z,1007.17
2022-12-26T10:39:52.739Z,1007.16
2022-12-26T10:40:52.704Z,1007.18
2022-12-26T10:41:52.719Z,1007.18
2022-12-26T10:42:52.698Z,1007.15
2022-12-26T10:43:52.676Z,1007.18
2022-12-26T10:44:52.679Z,1007.19
2022-12-26T10:45:52.649Z,1007.15
2022-12-26T10:46:52.689Z,1007.28
2022-12-26T10:47:52.639Z,1007.21
2022-12-26T10:48:52.618Z,1007.24
2022-12-26T10:49:52.636Z,1007.23
2022-12-26T10:50:52.597Z,1007.27
2022-12-26T10:51:52.590Z,1007.26
2022-12-26T10:52:52.593Z,1007.25
2022-12-26T10:53:52.570Z,1007.19
2022-12-26T10:54:52.580Z,1007.15
2022-12-26T10:55:53.580Z,1007.17
2022-12-26T10:56:52.566Z,1007.16
2022-12-26T10:57:52.536Z,1007.16
2022-12-26T10:58:52.530Z,1007.24
2022-12-26T10:59:52.629Z,1007.20
2022-12-26T11:00:52.494Z,1007.22
2022-12-26T11:01:52.576Z,1007.26
2022-12-26T11:02:52.571Z,1007.27
2022-12-26T11:03:52.484Z,1007.26
2022-12-26T11:05:15.580Z,1007.40
2022-12-26T11:06:09.550Z,1007.41
2022-12-26T11:06:53.448Z,1007.45
2022-12-26T11:07:52.412Z,1007.43
2022-12-26T11:08:52.421Z,1007.35
2022-12-26T11:09:52.391Z,1007.39
2022-12-26T11:10:52.397Z,1007.36
2022-12-26T11:11:52.383Z,1007.39
2022-12-26T11:12:52.365Z,1007.30
2022-12-26T11:13:52.351Z,1007.28
2022-12-26T11:14:52.352Z,1007.31
2022-12-26T11:15:52.396Z,1007.25
2022-12-26T11:16:52.330Z,1007.27
2022-12-26T11:17:52.312Z,1007.30
2022-12-26T11:18:52.333Z,1007.24
2022-12-26T11:19:52.292Z,1007.28
2022-12-26T11:20:52.277Z,1007.25
2022-12-26T11:21:52.273Z,1007.17
2022-12-26T11:22:52.261Z,1007.11
2022-12-26T11:23:52.258Z,1007.06
2022-12-26T11:24:52.253Z,1007.06
2022-12-26T11:25:52.223Z,1007.04
2022-12-26T11:26:52.231Z,1007.05
2022-12-26T11:27:52.202Z,1007.00
2022-12-26T11:28:52.184Z,1006.97
2022-12-26T11:29:52.207Z,1006.95
2022-12-26T11:30:52.319Z,1006.89
2022-12-26T11:31:52.179Z,1006.98
2022-12-26T11:32:52.159Z,1007.06
2022-12-26T11:33:59.658Z,1007.10
2022-12-26T11:34:52.127Z,1007.15
2022-12-26T11:35:52.153Z,1007.15
2022-12-26T11:36:52.112Z,1007.14
2022-12-26T11:37:52.086Z,1007.24
2022-12-26T11:38:52.074Z,1007.20
2022-12-26T11:39:52.071Z,1007.20
2022-12-26T11:40:52.067Z,1007.18
2022-12-26T11:41:52.075Z,1007.21
2022-12-26T11:42:52.072Z,1007.19
2022-12-26T11:43:52.048Z,1007.21
2022-12-26T11:44:52.017Z,1007.21
2022-12-26T11:45:52.014Z,1007.20
2022-12-26T11:46:52.102Z,1007.23
2022-12-26T11:47:51.984Z,1007.24
2022-12-26T11:48:51.982Z,1007.23
2022-12-26T11:49:51.980Z,1007.22
2022-12-26T11:50:51.948Z,1007.24
2022-12-26T11:51:58.699Z,1007.27
2022-12-26T11:52:52.954Z,1007.20
2022-12-26T11:53:51.918Z,1007.16
2022-12-26T11:54:51.902Z,1007.19
2022-12-26T11:55:51.899Z,1007.30
2022-12-26T11:56:51.887Z,1007.32
2022-12-26T11:57:55.388Z,1007.32
2022-12-26T11:58:52.878Z,1007.28
2022-12-26T11:59:51.860Z,1007.30
2022-12-26T12:00:51.857Z,1007.23
2022-12-26T12:01:51.902Z,1007.30
2022-12-26T12:02:51.886Z,1007.19
2022-12-26T12:03:51.863Z,1007.16
2022-12-26T12:04:51.802Z,1007.22
2022-12-26T12:05:51.789Z,1007.16
2022-12-26T12:06:51.785Z,1007.27
2022-12-26T12:07:51.777Z,1007.17
2022-12-26T12:08:51.768Z,1007.10